sensor_id;sensor_type;location;lat;lon;timestamp;temperature;humidity
2435;DHT22;1228;51.022;6.764;2023-06-14T00:01:34;17.60;99.90
2435;DHT22;1228;51.022;6.764;2023-06-14T00:04:01;17.60;99.90
2435;DHT22;1228;51.022;6.764;2023-06-14T00:06:28;17.60;99.90
2435;DHT22;1228;51.022;6.764;2023-06-14T00:08:54;17.60;99.90
2435;DHT22;1228;51.022;6.764;2023-06-14T00:11:20;17.60;99.90
2435;DHT22;1228;51.022;6.764;2023-06-14T00:13:46;17.50;99.90
2435;DHT22;1228;51.022;6.764;2023-06-14T00:16:12;17.50;99.90
2435;DHT22;1228;51.022;6.764;2023-06-14T00:18:37;17.40;99.90
2435;DHT22;1228;51.022;6.764;2023-06-14T00:21:04;17.50;99.90
2435;DHT22;1228;51.022;6.764;2023-06-14T00:23:29;17.40;99.90
2435;DHT22;1228;51.022;6.764;2023-06-14T00:25:55;17.40;99.90
2435;DHT22;1228;51.022;6.764;2023-06-14T00:28:21;17.30;99.90
2435;DHT22;1228;51.022;6.764;2023-06-14T00:30:46;17.30;99.90
2435;DHT22;1228;51.022;6.764;2023-06-14T00:33:12;17.20;99.90
2435;DHT22;1228;51.022;6.764;2023-06-14T00:35:38;17.20;99.90
2435;DHT22;1228;51.022;6.764;2023-06-14T00:38:04;17.10;99.90
2435;DHT22;1228;51.022;6.764;2023-06-14T00:40:29;17.10;99.90
2435;DHT22;1228;51.022;6.764;2023-06-14T00:42:55;17.00;99.90
2435;DHT22;1228;51.022;6.764;2023-06-14T00:45:20;17.00;99.90
2435;DHT22;1228;51.022;6.764;2023-06-14T00:47:47;16.90;99.90
2435;DHT22;1228;51.022;6.764;2023-06-14T00:50:13;16.90;99.90
2435;DHT22;1228;51.022;6.764;2023-06-14T00:52:39;16.90;99.90
2435;DHT22;1228;51.022;6.764;2023-06-14T00:55:05;16.90;99.90
2435;DHT22;1228;51.022;6.764;2023-06-14T00:57:31;16.90;99.90
2435;DHT22;1228;51.022;6.764;2023-06-14T00:59:57;16.80;99.90
2435;DHT22;1228;51.022;6.764;2023-06-14T01:02:23;16.80;99.90
2435;DHT22;1228;51.022;6.764;2023-06-14T01:04:50;16.70;99.90
2435;DHT22;1228;51.022;6.764;2023-06-14T01:13:30;16.60;99.90
2435;DHT22;1228;51.022;6.764;2023-06-14T01:15:58;16.50;99.90
2435;DHT22;1228;51.022;6.764;2023-06-14T01:18:24;16.50;99.90
2435;DHT22;1228;51.022;6.764;2023-06-14T01:20:51;16.50;99.90
2435;DHT22;1228;51.022;6.764;2023-06-14T01:23:19;16.40;99.90
2435;DHT22;1228;51.022;6.764;2023-06-14T01:25:46;16.40;99.90
2435;DHT22;1228;51.022;6.764;2023-06-14T01:28:13;16.40;99.90
2435;DHT22;1228;51.022;6.764;2023-06-14T01:30:44;16.40;99.90
2435;DHT22;1228;51.022;6.764;2023-06-14T01:33:17;16.40;99.90
2435;DHT22;1228;51.022;6.764;2023-06-14T01:35:51;16.30;99.90
2435;DHT22;1228;51.022;6.764;2023-06-14T01:38:22;16.30;99.90
2435;DHT22;1228;51.022;6.764;2023-06-14T01:40:49;16.30;99.90
2435;DHT22;1228;51.022;6.764;2023-06-14T01:43:16;16.20;99.90
2435;DHT22;1228;51.022;6.764;2023-06-14T01:45:44;16.20;99.90
2435;DHT22;1228;51.022;6.764;2023-06-14T01:48:11;16.10;99.90
2435;DHT22;1228;51.022;6.764;2023-06-14T01:50:37;16.10;99.90
2435;DHT22;1228;51.022;6.764;2023-06-14T01:53:06;16.10;99.90
2435;DHT22;1228;51.022;6.764;2023-06-14T01:55:32;16.00;99.90
2435;DHT22;1228;51.022;6.764;2023-06-14T01:58:03;16.00;99.90
2435;DHT22;1228;51.022;6.764;2023-06-14T02:00:29;16.00;99.90
2435;DHT22;1228;51.022;6.764;2023-06-14T02:02:54;16.00;99.90
2435;DHT22;1228;51.022;6.764;2023-06-14T02:05:21;15.90;99.90
2435;DHT22;1228;51.022;6.764;2023-06-14T02:07:47;15.90;99.90
2435;DHT22;1228;51.022;6.764;2023-06-14T02:10:13;15.90;99.90
2435;DHT22;1228;51.022;6.764;2023-06-14T02:12:39;15.80;99.90
2435;DHT22;1228;51.022;6.764;2023-06-14T02:15:05;15.80;99.90
2435;DHT22;1228;51.022;6.764;2023-06-14T02:17:32;15.70;99.90
2435;DHT22;1228;51.022;6.764;2023-06-14T02:19:58;15.60;99.90
2435;DHT22;1228;51.022;6.764;2023-06-14T02:22:23;15.60;99.90
2435;DHT22;1228;51.022;6.764;2023-06-14T02:24:49;15.50;99.90
2435;DHT22;1228;51.022;6.764;2023-06-14T02:27:15;15.50;99.90
2435;DHT22;1228;51.022;6.764;2023-06-14T02:29:41;15.50;99.90
2435;DHT22;1228;51.022;6.764;2023-06-14T02:32:06;15.50;99.90
2435;DHT22;1228;51.022;6.764;2023-06-14T02:34:33;15.50;99.90
2435;DHT22;1228;51.022;6.764;2023-06-14T02:37:00;15.50;99.90
2435;DHT22;1228;51.022;6.764;2023-06-14T02:39:26;15.50;99.90
2435;DHT22;1228;51.022;6.764;2023-06-14T02:41:51;15.40;99.90
2435;DHT22;1228;51.022;6.764;2023-06-14T02:44:24;15.40;99.90
2435;DHT22;1228;51.022;6.764;2023-06-14T02:46:50;15.30;99.90
2435;DHT22;1228;51.022;6.764;2023-06-14T02:49:16;15.30;99.90
2435;DHT22;1228;51.022;6.764;2023-06-14T02:51:42;15.30;99.90
2435;DHT22;1228;51.022;6.764;2023-06-14T02:54:07;15.30;99.90
2435;DHT22;1228;51.022;6.764;2023-06-14T02:56:33;15.30;99.90
2435;DHT22;1228;51.022;6.764;2023-06-14T02:58:58;15.30;99.90
2435;DHT22;1228;51.022;6.764;2023-06-14T03:01:26;15.30;99.90
2435;DHT22;1228;51.022;6.764;2023-06-14T03:04:00;15.20;99.90
2435;DHT22;1228;51.022;6.764;2023-06-14T03:06:28;15.20;99.90
2435;DHT22;1228;51.022;6.764;2023-06-14T03:08:59;15.10;99.90
2435;DHT22;1228;51.022;6.764;2023-06-14T03:11:30;15.10;99.90
2435;DHT22;1228;51.022;6.764;2023-06-14T03:13:56;15.10;99.90
2435;DHT22;1228;51.022;6.764;2023-06-14T03:16:22;15.00;99.90
2435;DHT22;1228;51.022;6.764;2023-06-14T03:18:50;15.00;99.90
2435;DHT22;1228;51.022;6.764;2023-06-14T03:21:16;15.00;99.90
2435;DHT22;1228;51.022;6.764;2023-06-14T03:23:43;15.00;99.90
2435;DHT22;1228;51.022;6.764;2023-06-14T03:26:09;15.00;99.90
2435;DHT22;1228;51.022;6.764;2023-06-14T03:28:34;15.00;99.90
2435;DHT22;1228;51.022;6.764;2023-06-14T03:31:00;15.00;99.90
2435;DHT22;1228;51.022;6.764;2023-06-14T03:33:26;15.10;99.90
2435;DHT22;1228;51.022;6.764;2023-06-14T03:35:52;15.10;99.90
2435;DHT22;1228;51.022;6.764;2023-06-14T03:38:18;15.10;99.90
2435;DHT22;1228;51.022;6.764;2023-06-14T03:40:44;15.10;99.90
2435;DHT22;1228;51.022;6.764;2023-06-14T03:43:09;15.10;99.90
2435;DHT22;1228;51.022;6.764;2023-06-14T03:45:35;15.00;99.90
2435;DHT22;1228;51.022;6.764;2023-06-14T03:48:01;15.10;99.90
2435;DHT22;1228;51.022;6.764;2023-06-14T03:50:28;15.10;99.90
2435;DHT22;1228;51.022;6.764;2023-06-14T03:52:53;15.10;99.90
2435;DHT22;1228;51.022;6.764;2023-06-14T03:55:19;15.10;99.90
2435;DHT22;1228;51.022;6.764;2023-06-14T03:57:45;15.20;99.90
2435;DHT22;1228;51.022;6.764;2023-06-14T04:00:11;15.20;99.90
2435;DHT22;1228;51.022;6.764;2023-06-14T04:02:38;15.20;99.90
2435;DHT22;1228;51.022;6.764;2023-06-14T04:05:03;15.30;99.90
2435;DHT22;1228;51.022;6.764;2023-06-14T04:07:29;15.30;99.90
2435;DHT22;1228;51.022;6.764;2023-06-14T04:09:55;15.30;99.90
2435;DHT22;1228;51.022;6.764;2023-06-14T04:12:21;15.40;99.90
2435;DHT22;1228;51.022;6.764;2023-06-14T04:14:46;15.50;99.90
2435;DHT22;1228;51.022;6.764;2023-06-14T04:17:12;15.50;99.90
2435;DHT22;1228;51.022;6.764;2023-06-14T04:19:37;15.50;99.90
2435;DHT22;1228;51.022;6.764;2023-06-14T04:22:03;15.60;99.90
2435;DHT22;1228;51.022;6.764;2023-06-14T04:24:29;15.60;99.90
2435;DHT22;1228;51.022;6.764;2023-06-14T04:27:00;15.70;99.90
2435;DHT22;1228;51.022;6.764;2023-06-14T04:29:29;15.70;99.90
2435;DHT22;1228;51.022;6.764;2023-06-14T04:31:55;15.80;99.90
2435;DHT22;1228;51.022;6.764;2023-06-14T04:34:27;15.90;99.90
2435;DHT22;1228;51.022;6.764;2023-06-14T04:36:55;16.10;99.90
2435;DHT22;1228;51.022;6.764;2023-06-14T04:39:22;16.40;99.90
2435;DHT22;1228;51.022;6.764;2023-06-14T04:41:48;16.70;99.90
2435;DHT22;1228;51.022;6.764;2023-06-14T04:44:17;17.20;99.90
2435;DHT22;1228;51.022;6.764;2023-06-14T04:46:43;17.50;99.90
2435;DHT22;1228;51.022;6.764;2023-06-14T04:49:16;17.70;99.90
2435;DHT22;1228;51.022;6.764;2023-06-14T04:51:43;18.00;99.90
2435;DHT22;1228;51.022;6.764;2023-06-14T04:54:10;18.20;99.90
2435;DHT22;1228;51.022;6.764;2023-06-14T04:56:38;18.40;99.90
2435;DHT22;1228;51.022;6.764;2023-06-14T04:59:04;18.70;99.90
2435;DHT22;1228;51.022;6.764;2023-06-14T05:01:30;19.00;99.90
2435;DHT22;1228;51.022;6.764;2023-06-14T05:03:57;19.30;99.90
2435;DHT22;1228;51.022;6.764;2023-06-14T05:06:23;19.50;99.90
2435;DHT22;1228;51.022;6.764;2023-06-14T05:08:49;19.80;99.90
2435;DHT22;1228;51.022;6.764;2023-06-14T05:11:14;19.90;99.90
2435;DHT22;1228;51.022;6.764;2023-06-14T05:13:42;20.10;99.90
2435;DHT22;1228;51.022;6.764;2023-06-14T05:16:08;20.20;99.90
2435;DHT22;1228;51.022;6.764;2023-06-14T05:18:34;20.20;99.90
2435;DHT22;1228;51.022;6.764;2023-06-14T05:21:01;20.20;99.90
2435;DHT22;1228;51.022;6.764;2023-06-14T05:23:26;20.00;99.90
2435;DHT22;1228;51.022;6.764;2023-06-14T05:25:52;19.90;99.90
2435;DHT22;1228;51.022;6.764;2023-06-14T05:28:18;19.80;99.90
2435;DHT22;1228;51.022;6.764;2023-06-14T05:30:43;19.70;99.90
2435;DHT22;1228;51.022;6.764;2023-06-14T05:33:09;19.70;99.90
2435;DHT22;1228;51.022;6.764;2023-06-14T05:35:35;19.70;99.90
2435;DHT22;1228;51.022;6.764;2023-06-14T05:38:00;19.70;99.90
2435;DHT22;1228;51.022;6.764;2023-06-14T05:40:26;19.90;99.90
2435;DHT22;1228;51.022;6.764;2023-06-14T05:42:52;20.30;99.90
2435;DHT22;1228;51.022;6.764;2023-06-14T05:45:18;20.60;99.90
2435;DHT22;1228;51.022;6.764;2023-06-14T05:47:43;21.10;99.90
2435;DHT22;1228;51.022;6.764;2023-06-14T05:50:09;21.50;99.90
2435;DHT22;1228;51.022;6.764;2023-06-14T05:52:35;22.00;99.90
2435;DHT22;1228;51.022;6.764;2023-06-14T05:55:02;22.40;99.90
2435;DHT22;1228;51.022;6.764;2023-06-14T05:57:28;22.60;99.90
2435;DHT22;1228;51.022;6.764;2023-06-14T05:59:54;22.90;99.90
2435;DHT22;1228;51.022;6.764;2023-06-14T06:02:20;23.20;99.90
2435;DHT22;1228;51.022;6.764;2023-06-14T06:04:45;23.40;99.90
2435;DHT22;1228;51.022;6.764;2023-06-14T06:07:11;23.60;99.90
2435;DHT22;1228;51.022;6.764;2023-06-14T06:09:37;23.70;99.90
2435;DHT22;1228;51.022;6.764;2023-06-14T06:12:04;23.80;99.90
2435;DHT22;1228;51.022;6.764;2023-06-14T06:14:30;24.10;99.90
2435;DHT22;1228;51.022;6.764;2023-06-14T06:16:56;24.20;99.90
2435;DHT22;1228;51.022;6.764;2023-06-14T06:19:21;24.20;99.90
2435;DHT22;1228;51.022;6.764;2023-06-14T06:21:47;24.20;99.90
2435;DHT22;1228;51.022;6.764;2023-06-14T06:24:13;24.40;99.90
2435;DHT22;1228;51.022;6.764;2023-06-14T06:26:38;24.60;99.90
2435;DHT22;1228;51.022;6.764;2023-06-14T06:29:05;24.60;99.90
2435;DHT22;1228;51.022;6.764;2023-06-14T06:31:31;24.80;99.90
2435;DHT22;1228;51.022;6.764;2023-06-14T06:33:56;24.90;99.90
2435;DHT22;1228;51.022;6.764;2023-06-14T06:36:22;25.20;99.90
2435;DHT22;1228;51.022;6.764;2023-06-14T06:38:48;25.20;99.90
2435;DHT22;1228;51.022;6.764;2023-06-14T06:41:14;25.40;99.90
2435;DHT22;1228;51.022;6.764;2023-06-14T06:43:39;25.70;99.90
2435;DHT22;1228;51.022;6.764;2023-06-14T06:46:05;26.10;99.90
2435;DHT22;1228;51.022;6.764;2023-06-14T06:48:30;26.30;99.90
2435;DHT22;1228;51.022;6.764;2023-06-14T06:50:56;26.40;99.10
2435;DHT22;1228;51.022;6.764;2023-06-14T06:53:22;26.40;99.50
2435;DHT22;1228;51.022;6.764;2023-06-14T06:55:48;26.30;98.00
2435;DHT22;1228;51.022;6.764;2023-06-14T06:58:14;26.30;99.10
2435;DHT22;1228;51.022;6.764;2023-06-14T07:00:39;26.60;98.50
2435;DHT22;1228;51.022;6.764;2023-06-14T07:03:05;26.90;98.50
2435;DHT22;1228;51.022;6.764;2023-06-14T07:05:31;26.90;96.40
2435;DHT22;1228;51.022;6.764;2023-06-14T07:07:57;26.90;97.10
2435;DHT22;1228;51.022;6.764;2023-06-14T07:10:23;26.80;97.10
2435;DHT22;1228;51.022;6.764;2023-06-14T07:12:50;26.80;96.10
2435;DHT22;1228;51.022;6.764;2023-06-14T07:15:16;27.00;95.70
2435;DHT22;1228;51.022;6.764;2023-06-14T07:17:42;27.10;96.80
2435;DHT22;1228;51.022;6.764;2023-06-14T07:20:08;27.40;97.20
2435;DHT22;1228;51.022;6.764;2023-06-14T07:22:38;27.70;96.40
2435;DHT22;1228;51.022;6.764;2023-06-14T07:25:04;28.00;94.70
2435;DHT22;1228;51.022;6.764;2023-06-14T07:27:30;28.20;93.90
2435;DHT22;1228;51.022;6.764;2023-06-14T07:29:56;28.50;95.40
2435;DHT22;1228;51.022;6.764;2023-06-14T07:32:21;28.90;94.40
2435;DHT22;1228;51.022;6.764;2023-06-14T07:34:47;29.20;93.80
2435;DHT22;1228;51.022;6.764;2023-06-14T07:37:12;29.10;93.00
2435;DHT22;1228;51.022;6.764;2023-06-14T07:39:38;28.90;90.30
2435;DHT22;1228;51.022;6.764;2023-06-14T07:42:04;28.90;91.90
2435;DHT22;1228;51.022;6.764;2023-06-14T07:44:30;28.60;90.10
2435;DHT22;1228;51.022;6.764;2023-06-14T07:46:56;28.60;91.50
2435;DHT22;1228;51.022;6.764;2023-06-14T07:49:24;28.80;91.20
2435;DHT22;1228;51.022;6.764;2023-06-14T07:51:50;29.10;92.00
2435;DHT22;1228;51.022;6.764;2023-06-14T07:54:16;29.30;86.60
2435;DHT22;1228;51.022;6.764;2023-06-14T07:56:42;29.30;84.70
2435;DHT22;1228;51.022;6.764;2023-06-14T07:59:07;29.10;84.30
2435;DHT22;1228;51.022;6.764;2023-06-14T08:01:33;28.80;83.70
2435;DHT22;1228;51.022;6.764;2023-06-14T08:03:59;28.50;86.50
2435;DHT22;1228;51.022;6.764;2023-06-14T08:06:25;28.70;87.30
2435;DHT22;1228;51.022;6.764;2023-06-14T08:08:51;28.80;83.40
2435;DHT22;1228;51.022;6.764;2023-06-14T08:11:17;28.70;82.30
2435;DHT22;1228;51.022;6.764;2023-06-14T08:13:42;28.80;84.60
2435;DHT22;1228;51.022;6.764;2023-06-14T08:16:08;28.90;82.00
2435;DHT22;1228;51.022;6.764;2023-06-14T08:18:34;29.40;86.50
2435;DHT22;1228;51.022;6.764;2023-06-14T08:20:59;29.60;78.60
2435;DHT22;1228;51.022;6.764;2023-06-14T08:23:25;29.70;77.90
2435;DHT22;1228;51.022;6.764;2023-06-14T08:25:51;29.80;75.70
2435;DHT22;1228;51.022;6.764;2023-06-14T08:28:16;29.90;71.10
2435;DHT22;1228;51.022;6.764;2023-06-14T08:30:42;29.90;70.90
2435;DHT22;1228;51.022;6.764;2023-06-14T08:33:08;29.60;67.40
2435;DHT22;1228;51.022;6.764;2023-06-14T08:35:33;29.60;69.60
2435;DHT22;1228;51.022;6.764;2023-06-14T08:38:02;29.60;67.10
2435;DHT22;1228;51.022;6.764;2023-06-14T08:40:30;29.70;67.30
2435;DHT22;1228;51.022;6.764;2023-06-14T08:42:56;29.60;62.70
2435;DHT22;1228;51.022;6.764;2023-06-14T08:45:23;29.70;63.90
2435;DHT22;1228;51.022;6.764;2023-06-14T08:47:50;29.80;63.10
2435;DHT22;1228;51.022;6.764;2023-06-14T08:50:23;29.90;63.50
2435;DHT22;1228;51.022;6.764;2023-06-14T08:52:54;30.00;63.70
2435;DHT22;1228;51.022;6.764;2023-06-14T08:55:21;30.30;64.00
2435;DHT22;1228;51.022;6.764;2023-06-14T08:57:51;30.20;58.90
2435;DHT22;1228;51.022;6.764;2023-06-14T09:00:19;30.10;57.90
2435;DHT22;1228;51.022;6.764;2023-06-14T09:02:46;30.20;59.60
2435;DHT22;1228;51.022;6.764;2023-06-14T09:05:12;30.30;60.50
2435;DHT22;1228;51.022;6.764;2023-06-14T09:07:39;30.60;60.80
2435;DHT22;1228;51.022;6.764;2023-06-14T09:10:16;30.80;62.10
2435;DHT22;1228;51.022;6.764;2023-06-14T09:12:42;30.80;59.60
2435;DHT22;1228;51.022;6.764;2023-06-14T09:15:09;30.80;60.50
2435;DHT22;1228;51.022;6.764;2023-06-14T09:17:36;30.50;56.20
2435;DHT22;1228;51.022;6.764;2023-06-14T09:20:06;30.30;59.50
2435;DHT22;1228;51.022;6.764;2023-06-14T09:22:33;30.30;58.70
2435;DHT22;1228;51.022;6.764;2023-06-14T09:24:59;30.30;59.40
2435;DHT22;1228;51.022;6.764;2023-06-14T09:27:28;30.50;61.90
2435;DHT22;1228;51.022;6.764;2023-06-14T09:29:54;30.40;57.70
2435;DHT22;1228;51.022;6.764;2023-06-14T09:32:21;30.60;62.60
2435;DHT22;1228;51.022;6.764;2023-06-14T09:34:47;30.80;59.70
2435;DHT22;1228;51.022;6.764;2023-06-14T09:37:13;31.00;58.90
2435;DHT22;1228;51.022;6.764;2023-06-14T09:39:51;31.20;58.70
2435;DHT22;1228;51.022;6.764;2023-06-14T09:42:17;31.00;57.60
2435;DHT22;1228;51.022;6.764;2023-06-14T09:44:48;31.10;60.00
2435;DHT22;1228;51.022;6.764;2023-06-14T09:47:16;31.00;60.20
2435;DHT22;1228;51.022;6.764;2023-06-14T09:49:43;31.00;59.40
2435;DHT22;1228;51.022;6.764;2023-06-14T09:52:17;30.60;58.70
2435;DHT22;1228;51.022;6.764;2023-06-14T09:54:44;30.20;57.00
2435;DHT22;1228;51.022;6.764;2023-06-14T09:57:15;29.90;58.90
2435;DHT22;1228;51.022;6.764;2023-06-14T09:59:45;29.90;59.90
2435;DHT22;1228;51.022;6.764;2023-06-14T10:02:25;30.10;61.00
2435;DHT22;1228;51.022;6.764;2023-06-14T10:05:04;30.40;59.70
2435;DHT22;1228;51.022;6.764;2023-06-14T10:07:48;30.50;58.50
2435;DHT22;1228;51.022;6.764;2023-06-14T10:10:14;30.70;62.70
2435;DHT22;1228;51.022;6.764;2023-06-14T10:12:40;30.90;63.50
2435;DHT22;1228;51.022;6.764;2023-06-14T10:15:08;31.00;67.50
2435;DHT22;1228;51.022;6.764;2023-06-14T10:17:55;30.70;64.00
2435;DHT22;1228;51.022;6.764;2023-06-14T10:23:02;30.20;63.70
2435;DHT22;1228;51.022;6.764;2023-06-14T10:25:30;30.10;62.60
2435;DHT22;1228;51.022;6.764;2023-06-14T10:28:24;30.20;66.80
2435;DHT22;1228;51.022;6.764;2023-06-14T10:31:06;30.20;63.00
2435;DHT22;1228;51.022;6.764;2023-06-14T10:33:34;30.50;66.70
2435;DHT22;1228;51.022;6.764;2023-06-14T10:36:10;30.60;62.70
2435;DHT22;1228;51.022;6.764;2023-06-14T10:38:36;30.70;59.80
2435;DHT22;1228;51.022;6.764;2023-06-14T10:41:04;30.60;60.30
2435;DHT22;1228;51.022;6.764;2023-06-14T10:43:30;30.60;60.90
2435;DHT22;1228;51.022;6.764;2023-06-14T10:46:19;30.90;63.50
2435;DHT22;1228;51.022;6.764;2023-06-14T10:48:48;31.30;67.10
2435;DHT22;1228;51.022;6.764;2023-06-14T10:51:23;31.20;60.00
2435;DHT22;1228;51.022;6.764;2023-06-14T10:53:50;31.20;65.50
2435;DHT22;1228;51.022;6.764;2023-06-14T10:56:26;31.40;63.40
2435;DHT22;1228;51.022;6.764;2023-06-14T10:58:52;31.60;68.50
2435;DHT22;1228;51.022;6.764;2023-06-14T11:01:28;31.60;65.10
2435;DHT22;1228;51.022;6.764;2023-06-14T11:04:00;31.60;68.50
2435;DHT22;1228;51.022;6.764;2023-06-14T11:06:45;31.80;65.00
2435;DHT22;1228;51.022;6.764;2023-06-14T11:11:47;31.70;64.00
2435;DHT22;1228;51.022;6.764;2023-06-14T11:14:13;31.40;68.10
2435;DHT22;1228;51.022;6.764;2023-06-14T11:16:39;31.40;70.70
2435;DHT22;1228;51.022;6.764;2023-06-14T11:19:05;31.60;64.60
2435;DHT22;1228;51.022;6.764;2023-06-14T11:21:34;31.80;66.30
2435;DHT22;1228;51.022;6.764;2023-06-14T11:24:10;31.80;66.30
2435;DHT22;1228;51.022;6.764;2023-06-14T11:26:37;32.10;68.70
2435;DHT22;1228;51.022;6.764;2023-06-14T11:29:03;32.10;69.40
2435;DHT22;1228;51.022;6.764;2023-06-14T11:31:29;32.10;66.20
2435;DHT22;1228;51.022;6.764;2023-06-14T11:33:59;32.00;66.20
2435;DHT22;1228;51.022;6.764;2023-06-14T11:36:29;31.90;65.70
2435;DHT22;1228;51.022;6.764;2023-06-14T11:39:03;32.00;67.00
2435;DHT22;1228;51.022;6.764;2023-06-14T11:41:40;32.20;65.70
2435;DHT22;1228;51.022;6.764;2023-06-14T11:44:07;31.80;60.10
2435;DHT22;1228;51.022;6.764;2023-06-14T11:46:33;31.60;64.50
2435;DHT22;1228;51.022;6.764;2023-06-14T11:48:59;31.60;63.30
2435;DHT22;1228;51.022;6.764;2023-06-14T11:51:32;31.80;67.70
2435;DHT22;1228;51.022;6.764;2023-06-14T11:53:58;31.80;62.40
2435;DHT22;1228;51.022;6.764;2023-06-14T11:56:24;31.60;64.40
2435;DHT22;1228;51.022;6.764;2023-06-14T11:58:52;31.60;63.80
2435;DHT22;1228;51.022;6.764;2023-06-14T12:01:17;31.80;63.70
2435;DHT22;1228;51.022;6.764;2023-06-14T12:03:50;31.60;63.70
2435;DHT22;1228;51.022;6.764;2023-06-14T12:06:24;31.60;66.90
2435;DHT22;1228;51.022;6.764;2023-06-14T12:08:51;31.60;66.70
2435;DHT22;1228;51.022;6.764;2023-06-14T12:11:17;31.40;61.80
2435;DHT22;1228;51.022;6.764;2023-06-14T12:13:43;31.40;62.00
2435;DHT22;1228;51.022;6.764;2023-06-14T12:16:10;31.60;64.60
2435;DHT22;1228;51.022;6.764;2023-06-14T12:18:39;32.00;64.60
2435;DHT22;1228;51.022;6.764;2023-06-14T12:21:05;32.50;66.30
2435;DHT22;1228;51.022;6.764;2023-06-14T12:23:48;32.90;62.40
2435;DHT22;1228;51.022;6.764;2023-06-14T12:26:15;33.00;59.80
2435;DHT22;1228;51.022;6.764;2023-06-14T12:28:42;32.30;59.00
2435;DHT22;1228;51.022;6.764;2023-06-14T12:31:12;31.60;60.60
2435;DHT22;1228;51.022;6.764;2023-06-14T12:33:39;31.40;63.70
2435;DHT22;1228;51.022;6.764;2023-06-14T12:36:06;31.40;61.00
2435;DHT22;1228;51.022;6.764;2023-06-14T12:38:33;31.70;59.60
2435;DHT22;1228;51.022;6.764;2023-06-14T12:40:58;31.30;61.20
2435;DHT22;1228;51.022;6.764;2023-06-14T12:43:24;31.20;59.00
2435;DHT22;1228;51.022;6.764;2023-06-14T12:45:50;31.70;60.30
2435;DHT22;1228;51.022;6.764;2023-06-14T12:48:15;31.60;61.40
2435;DHT22;1228;51.022;6.764;2023-06-14T12:50:42;31.00;59.50
2435;DHT22;1228;51.022;6.764;2023-06-14T12:53:09;30.50;60.10
2435;DHT22;1228;51.022;6.764;2023-06-14T12:55:35;30.60;63.60
2435;DHT22;1228;51.022;6.764;2023-06-14T12:58:01;31.00;63.10
2435;DHT22;1228;51.022;6.764;2023-06-14T13:00:27;31.40;65.70
2435;DHT22;1228;51.022;6.764;2023-06-14T13:02:53;31.90;58.80
2435;DHT22;1228;51.022;6.764;2023-06-14T13:05:19;32.20;56.60
2435;DHT22;1228;51.022;6.764;2023-06-14T13:07:45;32.30;58.60
2435;DHT22;1228;51.022;6.764;2023-06-14T13:10:10;32.50;60.80
2435;DHT22;1228;51.022;6.764;2023-06-14T13:12:36;32.60;59.10
2435;DHT22;1228;51.022;6.764;2023-06-14T13:15:02;32.90;56.00
2435;DHT22;1228;51.022;6.764;2023-06-14T13:17:27;32.90;56.40
2435;DHT22;1228;51.022;6.764;2023-06-14T13:19:53;33.10;57.90
2435;DHT22;1228;51.022;6.764;2023-06-14T13:22:19;33.20;57.40
2435;DHT22;1228;51.022;6.764;2023-06-14T13:24:45;32.30;54.70
2435;DHT22;1228;51.022;6.764;2023-06-14T13:27:11;31.80;54.30
2435;DHT22;1228;51.022;6.764;2023-06-14T13:29:38;31.70;53.00
2435;DHT22;1228;51.022;6.764;2023-06-14T13:32:04;31.70;56.80
2435;DHT22;1228;51.022;6.764;2023-06-14T13:34:30;31.70;57.20
2435;DHT22;1228;51.022;6.764;2023-06-14T13:36:57;32.00;53.80
2435;DHT22;1228;51.022;6.764;2023-06-14T13:39:26;31.80;56.90
2435;DHT22;1228;51.022;6.764;2023-06-14T13:41:51;31.80;57.90
2435;DHT22;1228;51.022;6.764;2023-06-14T13:44:17;32.30;59.40
2435;DHT22;1228;51.022;6.764;2023-06-14T13:46:46;32.60;55.20
2435;DHT22;1228;51.022;6.764;2023-06-14T13:49:12;32.80;58.00
2435;DHT22;1228;51.022;6.764;2023-06-14T13:51:41;32.70;57.90
2435;DHT22;1228;51.022;6.764;2023-06-14T13:54:06;32.50;54.30
2435;DHT22;1228;51.022;6.764;2023-06-14T13:56:32;32.60;54.40
2435;DHT22;1228;51.022;6.764;2023-06-14T13:58:58;32.90;55.00
2435;DHT22;1228;51.022;6.764;2023-06-14T14:01:24;33.30;54.80
2435;DHT22;1228;51.022;6.764;2023-06-14T14:03:51;33.30;53.40
2435;DHT22;1228;51.022;6.764;2023-06-14T14:06:16;33.30;53.70
2435;DHT22;1228;51.022;6.764;2023-06-14T14:08:42;32.90;55.50
2435;DHT22;1228;51.022;6.764;2023-06-14T14:11:09;32.90;55.20
2435;DHT22;1228;51.022;6.764;2023-06-14T14:13:35;32.30;53.80
2435;DHT22;1228;51.022;6.764;2023-06-14T14:16:05;31.70;55.50
2435;DHT22;1228;51.022;6.764;2023-06-14T14:18:31;30.90;55.60
2435;DHT22;1228;51.022;6.764;2023-06-14T14:20:58;31.00;58.00
2435;DHT22;1228;51.022;6.764;2023-06-14T14:23:24;31.00;56.90
2435;DHT22;1228;51.022;6.764;2023-06-14T14:25:49;30.90;60.90
2435;DHT22;1228;51.022;6.764;2023-06-14T14:28:15;30.50;56.20
2435;DHT22;1228;51.022;6.764;2023-06-14T14:30:42;30.00;56.40
2435;DHT22;1228;51.022;6.764;2023-06-14T14:33:09;29.50;58.50
2435;DHT22;1228;51.022;6.764;2023-06-14T14:35:42;29.20;57.40
2435;DHT22;1228;51.022;6.764;2023-06-14T14:38:11;29.40;58.70
2435;DHT22;1228;51.022;6.764;2023-06-14T14:40:38;29.80;62.50
2435;DHT22;1228;51.022;6.764;2023-06-14T14:43:03;30.60;60.30
2435;DHT22;1228;51.022;6.764;2023-06-14T14:45:30;31.20;60.00
2435;DHT22;1228;51.022;6.764;2023-06-14T14:47:55;31.80;59.50
2435;DHT22;1228;51.022;6.764;2023-06-14T14:50:21;32.30;58.00
2435;DHT22;1228;51.022;6.764;2023-06-14T14:52:47;32.70;59.00
2435;DHT22;1228;51.022;6.764;2023-06-14T14:55:12;32.80;56.60
2435;DHT22;1228;51.022;6.764;2023-06-14T14:57:38;32.70;57.00
2435;DHT22;1228;51.022;6.764;2023-06-14T15:00:05;32.30;57.50
2435;DHT22;1228;51.022;6.764;2023-06-14T15:02:32;32.00;58.10
2435;DHT22;1228;51.022;6.764;2023-06-14T15:04:58;31.30;54.40
2435;DHT22;1228;51.022;6.764;2023-06-14T15:07:27;31.00;55.80
2435;DHT22;1228;51.022;6.764;2023-06-14T15:10:00;30.50;55.50
2435;DHT22;1228;51.022;6.764;2023-06-14T15:12:25;30.30;54.30
2435;DHT22;1228;51.022;6.764;2023-06-14T15:14:53;30.40;55.30
2435;DHT22;1228;51.022;6.764;2023-06-14T15:17:19;30.60;54.80
2435;DHT22;1228;51.022;6.764;2023-06-14T15:19:47;30.70;54.40
2435;DHT22;1228;51.022;6.764;2023-06-14T15:22:15;30.90;58.90
2435;DHT22;1228;51.022;6.764;2023-06-14T15:24:41;31.00;56.90
2435;DHT22;1228;51.022;6.764;2023-06-14T15:27:08;31.10;55.20
2435;DHT22;1228;51.022;6.764;2023-06-14T15:29:34;31.20;59.20
2435;DHT22;1228;51.022;6.764;2023-06-14T15:32:03;31.50;55.50
2435;DHT22;1228;51.022;6.764;2023-06-14T15:34:32;31.50;52.80
2435;DHT22;1228;51.022;6.764;2023-06-14T15:36:58;31.20;53.60
2435;DHT22;1228;51.022;6.764;2023-06-14T15:39:23;31.20;54.80
2435;DHT22;1228;51.022;6.764;2023-06-14T15:41:50;31.40;53.10
2435;DHT22;1228;51.022;6.764;2023-06-14T15:44:17;31.60;52.90
2435;DHT22;1228;51.022;6.764;2023-06-14T15:46:43;31.80;52.90
2435;DHT22;1228;51.022;6.764;2023-06-14T15:49:09;32.00;54.80
2435;DHT22;1228;51.022;6.764;2023-06-14T15:51:36;32.40;52.80
2435;DHT22;1228;51.022;6.764;2023-06-14T15:54:03;32.60;55.30
2435;DHT22;1228;51.022;6.764;2023-06-14T15:56:28;32.80;53.10
2435;DHT22;1228;51.022;6.764;2023-06-14T15:58:58;32.80;56.10
2435;DHT22;1228;51.022;6.764;2023-06-14T16:01:24;32.30;52.10
2435;DHT22;1228;51.022;6.764;2023-06-14T16:03:50;31.80;52.40
2435;DHT22;1228;51.022;6.764;2023-06-14T16:06:17;31.20;51.50
2435;DHT22;1228;51.022;6.764;2023-06-14T16:08:46;30.30;51.60
2435;DHT22;1228;51.022;6.764;2023-06-14T16:11:12;29.50;52.60
2435;DHT22;1228;51.022;6.764;2023-06-14T16:13:40;29.30;53.90